sensor_id;sensor_type;location;lat;lon;timestamp;pressure;altitude;pressure_sealevel;temperature;humidity
52307;BME280;38249;48.920;12.882;2022-12-29T00:01:55;96958.41;;;3.63;55.07
52307;BME280;38249;48.920;12.882;2022-12-29T00:04:22;96952.81;;;3.64;55.72
52307;BME280;38249;48.920;12.882;2022-12-29T00:06:50;96950.09;;;3.79;55.54
52307;BME280;38249;48.920;12.882;2022-12-29T00:09:16;96934.16;;;3.69;55.55
52307;BME280;38249;48.920;12.882;2022-12-29T00:11:43;96940.81;;;3.72;54.94
52307;BME280;38249;48.920;12.882;2022-12-29T00:14:10;96936.78;;;3.74;55.58
52307;BME280;38249;48.920;12.882;2022-12-29T00:16:54;96934.09;;;3.79;55.19
52307;BME280;38249;48.920;12.882;2022-12-29T00:19:21;96933.34;;;3.74;55.64
52307;BME280;38249;48.920;12.882;2022-12-29T00:22:08;96936.22;;;3.83;55.28
52307;BME280;38249;48.920;12.882;2022-12-29T00:24:53;96927.78;;;3.65;55.57
52307;BME280;38249;48.920;12.882;2022-12-29T00:27:37;96929.09;;;3.68;55.54
52307;BME280;38249;48.920;12.882;2022-12-29T00:30:22;96911.50;;;3.72;55.37
52307;BME280;38249;48.920;12.882;2022-12-29T00:33:09;96923.75;;;3.73;55.91
52307;BME280;38249;48.920;12.882;2022-12-29T00:35:56;96918.69;;;3.71;55.84
52307;BME280;38249;48.920;12.882;2022-12-29T00:38:25;96912.56;;;3.71;56.12
52307;BME280;38249;48.920;12.882;2022-12-29T00:41:10;96917.16;;;3.60;55.73
52307;BME280;38249;48.920;12.882;2022-12-29T00:43:54;96926.72;;;3.61;55.29
52307;BME280;38249;48.920;12.882;2022-12-29T00:46:36;96921.66;;;3.70;55.48
52307;BME280;38249;48.920;12.882;2022-12-29T00:49:03;96919.25;;;3.68;55.09
52307;BME280;38249;48.920;12.882;2022-12-29T00:51:47;96916.84;;;3.72;55.60
52307;BME280;38249;48.920;12.882;2022-12-29T00:54:15;96922.34;;;3.86;55.56
52307;BME280;38249;48.920;12.882;2022-12-29T00:56:42;96919.50;;;3.72;55.46
52307;BME280;38249;48.920;12.882;2022-12-29T00:59:10;96921.31;;;3.82;55.21
52307;BME280;38249;48.920;12.882;2022-12-29T01:01:37;96927.47;;;3.77;55.42
52307;BME280;38249;48.920;12.882;2022-12-29T01:04:04;96923.47;;;3.74;55.83
52307;BME280;38249;48.920;12.882;2022-12-29T01:06:31;96917.63;;;3.72;55.97
52307;BME280;38249;48.920;12.882;2022-12-29T01:08:58;96913.34;;;3.71;55.52
52307;BME280;38249;48.920;12.882;2022-12-29T01:11:43;96919.41;;;3.87;55.86
52307;BME280;38249;48.920;12.882;2022-12-29T01:14:09;96914.69;;;3.74;55.61
52307;BME280;38249;48.920;12.882;2022-12-29T01:16:36;96917.34;;;3.74;55.62
52307;BME280;38249;48.920;12.882;2022-12-29T01:19:03;96918.94;;;3.80;55.96
52307;BME280;38249;48.920;12.882;2022-12-29T01:21:29;96913.34;;;3.82;55.70
52307;BME280;38249;48.920;12.882;2022-12-29T01:23:56;96920.25;;;3.77;55.54
52307;BME280;38249;48.920;12.882;2022-12-29T01:26:22;96921.63;;;3.75;55.52
52307;BME280;38249;48.920;12.882;2022-12-29T01:28:50;96920.50;;;3.81;56.06
52307;BME280;38249;48.920;12.882;2022-12-29T01:31:17;96924.59;;;3.68;55.57
52307;BME280;38249;48.920;12.882;2022-12-29T01:33:43;96921.38;;;3.66;56.13
52307;BME280;38249;48.920;12.882;2022-12-29T01:36:11;96916.81;;;3.77;55.40
52307;BME280;38249;48.920;12.882;2022-12-29T01:38:39;96913.34;;;3.76;55.85
52307;BME280;38249;48.920;12.882;2022-12-29T01:41:07;96922.41;;;3.75;55.44
52307;BME280;38249;48.920;12.882;2022-12-29T01:43:39;96911.72;;;3.81;55.88
52307;BME280;38249;48.920;12.882;2022-12-29T01:46:15;96911.44;;;3.82;55.76
52307;BME280;38249;48.920;12.882;2022-12-29T01:48:45;96915.75;;;3.73;55.81
52307;BME280;38249;48.920;12.882;2022-12-29T01:51:12;96908.31;;;3.65;55.38
52307;BME280;38249;48.920;12.882;2022-12-29T01:53:39;96898.75;;;3.64;55.93
52307;BME280;38249;48.920;12.882;2022-12-29T01:56:07;96910.69;;;3.76;55.52
52307;BME280;38249;48.920;12.882;2022-12-29T01:58:41;96897.91;;;3.73;56.15
52307;BME280;38249;48.920;12.882;2022-12-29T02:01:12;96886.19;;;3.74;55.82
52307;BME280;38249;48.920;12.882;2022-12-29T02:03:40;96893.44;;;3.64;55.44
52307;BME280;38249;48.920;12.882;2022-12-29T02:06:10;96894.16;;;3.74;55.78
52307;BME280;38249;48.920;12.882;2022-12-29T02:08:38;96881.41;;;3.66;55.54
52307;BME280;38249;48.920;12.882;2022-12-29T02:11:05;96888.09;;;3.64;56.10
52307;BME280;38249;48.920;12.882;2022-12-29T02:13:33;96895.03;;;3.59;55.66
52307;BME280;38249;48.920;12.882;2022-12-29T02:16:08;96884.09;;;3.66;55.54
52307;BME280;38249;48.920;12.882;2022-12-29T02:18:51;96879.31;;;3.68;55.48
52307;BME280;38249;48.920;12.882;2022-12-29T02:21:53;96884.31;;;3.75;55.76
52307;BME280;38249;48.920;12.882;2022-12-29T02:27:46;96886.53;;;3.57;55.07
52307;BME280;38249;48.920;12.882;2022-12-29T02:30:44;96879.88;;;3.55;55.98
52307;BME280;38249;48.920;12.882;2022-12-29T02:33:21;96871.41;;;3.42;56.25
52307;BME280;38249;48.920;12.882;2022-12-29T02:35:55;96875.69;;;3.38;56.05
52307;BME280;38249;48.920;12.882;2022-12-29T02:38:34;96879.66;;;3.46;56.48
52307;BME280;38249;48.920;12.882;2022-12-29T02:41:11;96880.16;;;3.48;56.04
52307;BME280;38249;48.920;12.882;2022-12-29T02:43:48;96874.56;;;3.50;55.46
52307;BME280;38249;48.920;12.882;2022-12-29T02:46:22;96877.47;;;3.53;55.95
52307;BME280;38249;48.920;12.882;2022-12-29T02:48:57;96876.47;;;3.44;55.79
52307;BME280;38249;48.920;12.882;2022-12-29T02:51:30;96871.69;;;3.41;55.73
52307;BME280;38249;48.920;12.882;2022-12-29T02:53:59;96864.25;;;3.33;55.17
52307;BME280;38249;48.920;12.882;2022-12-29T02:56:57;96857.09;;;3.28;55.82
52307;BME280;38249;48.920;12.882;2022-12-29T02:59:24;96864.03;;;3.29;55.80
52307;BME280;38249;48.920;12.882;2022-12-29T03:02:11;96859.41;;;3.50;55.47
52307;BME280;38249;48.920;12.882;2022-12-29T03:04:51;96862.88;;;3.46;55.88
52307;BME280;38249;48.920;12.882;2022-12-29T03:07:24;96865.00;;;3.43;55.53
52307;BME280;38249;48.920;12.882;2022-12-29T03:09:59;96859.16;;;3.41;56.02
52307;BME280;38249;48.920;12.882;2022-12-29T03:12:30;96850.94;;;3.38;55.85
52307;BME280;38249;48.920;12.882;2022-12-29T03:15:18;96853.59;;;3.38;55.38
52307;BME280;38249;48.920;12.882;2022-12-29T03:18:12;96848.78;;;3.40;56.00
52307;BME280;38249;48.920;12.882;2022-12-29T03:20:46;96846.63;;;3.42;55.11
52307;BME280;38249;48.920;12.882;2022-12-29T03:23:16;96852.28;;;3.30;55.34
52307;BME280;38249;48.920;12.882;2022-12-29T03:25:47;96849.31;;;3.42;55.88
52307;BME280;38249;48.920;12.882;2022-12-29T03:28:19;96840.22;;;3.48;55.60
52307;BME280;38249;48.920;12.882;2022-12-29T03:30:47;96844.81;;;3.32;55.82
52307;BME280;38249;48.920;12.882;2022-12-29T03:33:17;96858.09;;;3.42;56.16
52307;BME280;38249;48.920;12.882;2022-12-29T03:35:46;96852.00;;;3.37;55.68
52307;BME280;38249;48.920;12.882;2022-12-29T03:38:17;96866.63;;;3.39;55.51
52307;BME280;38249;48.920;12.882;2022-12-29T03:40:47;96842.66;;;3.39;55.90
52307;BME280;38249;48.920;12.882;2022-12-29T03:43:14;96864.00;;;3.34;56.11
52307;BME280;38249;48.920;12.882;2022-12-29T03:45:41;96868.50;;;3.34;55.34
52307;BME280;38249;48.920;12.882;2022-12-29T03:48:08;96862.38;;;3.38;55.94
52307;BME280;38249;48.920;12.882;2022-12-29T03:50:35;96849.53;;;3.56;55.84
52307;BME280;38249;48.920;12.882;2022-12-29T03:53:02;96857.25;;;3.52;55.42
52307;BME280;38249;48.920;12.882;2022-12-29T03:55:29;96861.22;;;3.60;55.02
52307;BME280;38249;48.920;12.882;2022-12-29T03:57:56;96868.38;;;3.70;55.17
52307;BME280;38249;48.920;12.882;2022-12-29T04:00:22;96859.50;;;3.79;55.52
52307;BME280;38249;48.920;12.882;2022-12-29T04:02:49;96864.28;;;3.88;54.65
52307;BME280;38249;48.920;12.882;2022-12-29T04:05:15;96862.88;;;3.95;55.00
52307;BME280;38249;48.920;12.882;2022-12-29T04:07:43;96862.47;;;4.18;54.57
52307;BME280;38249;48.920;12.882;2022-12-29T04:10:10;96848.91;;;4.14;54.45
52307;BME280;38249;48.920;12.882;2022-12-29T04:12:36;96845.72;;;4.17;55.06
52307;BME280;38249;48.920;12.882;2022-12-29T04:15:03;96822.13;;;4.29;55.17
52307;BME280;38249;48.920;12.882;2022-12-29T04:17:30;96832.00;;;4.29;55.54
52307;BME280;38249;48.920;12.882;2022-12-29T04:19:56;96842.91;;;4.32;55.69
52307;BME280;38249;48.920;12.882;2022-12-29T04:22:44;96841.47;;;4.45;55.14
52307;BME280;38249;48.920;12.882;2022-12-29T04:25:11;96840.97;;;4.38;55.81
52307;BME280;38249;48.920;12.882;2022-12-29T04:27:37;96838.56;;;4.42;55.37
52307;BME280;38249;48.920;12.882;2022-12-29T04:30:04;96833.38;;;4.56;55.98
52307;BME280;38249;48.920;12.882;2022-12-29T04:32:31;96841.97;;;4.47;56.32
52307;BME280;38249;48.920;12.882;2022-12-29T04:34:58;96841.38;;;4.56;56.19
52307;BME280;38249;48.920;12.882;2022-12-29T04:37:24;96841.31;;;4.61;56.69
52307;BME280;38249;48.920;12.882;2022-12-29T04:39:52;96834.50;;;4.79;56.46
52307;BME280;38249;48.920;12.882;2022-12-29T04:42:18;96845.25;;;4.68;56.36
52307;BME280;38249;48.920;12.882;2022-12-29T04:44:45;96846.31;;;4.73;56.67
52307;BME280;38249;48.920;12.882;2022-12-29T04:47:11;96837.50;;;4.72;56.70
52307;BME280;38249;48.920;12.882;2022-12-29T04:49:38;96842.53;;;4.74;57.04
52307;BME280;38249;48.920;12.882;2022-12-29T04:52:04;96833.25;;;4.71;56.99
52307;BME280;38249;48.920;12.882;2022-12-29T04:54:31;96840.91;;;4.78;56.74
52307;BME280;38249;48.920;12.882;2022-12-29T04:56:58;96837.53;;;4.96;56.74
52307;BME280;38249;48.920;12.882;2022-12-29T04:59:25;96830.06;;;4.93;56.85
52307;BME280;38249;48.920;12.882;2022-12-29T05:01:52;96833.03;;;4.92;57.04
52307;BME280;38249;48.920;12.882;2022-12-29T05:04:18;96840.19;;;4.96;56.66
52307;BME280;38249;48.920;12.882;2022-12-29T05:06:45;96843.09;;;5.00;56.72
52307;BME280;38249;48.920;12.882;2022-12-29T05:09:11;96837.75;;;5.00;56.84
52307;BME280;38249;48.920;12.882;2022-12-29T05:11:38;96836.69;;;5.01;56.91
52307;BME280;38249;48.920;12.882;2022-12-29T05:14:06;96842.44;;;5.13;56.79
52307;BME280;38249;48.920;12.882;2022-12-29T05:16:32;96841.22;;;5.00;56.73
52307;BME280;38249;48.920;12.882;2022-12-29T05:18:59;96840.94;;;5.02;57.16
52307;BME280;38249;48.920;12.882;2022-12-29T05:21:25;96840.34;;;5.05;56.74
52307;BME280;38249;48.920;12.882;2022-12-29T05:23:52;96833.66;;;5.07;56.50
52307;BME280;38249;48.920;12.882;2022-12-29T05:26:18;96845.38;;;5.12;56.19
52307;BME280;38249;48.920;12.882;2022-12-29T05:28:45;96845.59;;;5.15;56.10
52307;BME280;38249;48.920;12.882;2022-12-29T05:31:13;96839.28;;;5.30;55.78
52307;BME280;38249;48.920;12.882;2022-12-29T05:33:39;96840.47;;;5.19;56.26
52307;BME280;38249;48.920;12.882;2022-12-29T05:36:07;96824.41;;;5.24;56.07
52307;BME280;38249;48.920;12.882;2022-12-29T05:38:33;96831.41;;;5.20;55.86
52307;BME280;38249;48.920;12.882;2022-12-29T05:41:00;96831.56;;;5.29;56.08
52307;BME280;38249;48.920;12.882;2022-12-29T05:43:27;96828.66;;;5.25;55.62
52307;BME280;38249;48.920;12.882;2022-12-29T05:45:54;96843.56;;;5.31;55.70
52307;BME280;38249;48.920;12.882;2022-12-29T05:48:22;96835.66;;;5.45;55.35
52307;BME280;38249;48.920;12.882;2022-12-29T05:50:49;96831.72;;;5.37;55.26
52307;BME280;38249;48.920;12.882;2022-12-29T05:53:16;96845.84;;;5.43;55.21
52307;BME280;38249;48.920;12.882;2022-12-29T05:55:43;96824.78;;;5.36;55.39
52307;BME280;38249;48.920;12.882;2022-12-29T05:58:10;96830.63;;;5.38;55.56
52307;BME280;38249;48.920;12.882;2022-12-29T06:00:36;96828.81;;;5.34;55.55
52307;BME280;38249;48.920;12.882;2022-12-29T06:03:03;96832.25;;;5.39;55.33
52307;BME280;38249;48.920;12.882;2022-12-29T06:05:31;96822.44;;;5.54;55.09
52307;BME280;38249;48.920;12.882;2022-12-29T06:07:57;96838.63;;;5.43;55.06
52307;BME280;38249;48.920;12.882;2022-12-29T06:10:24;96816.97;;;5.45;55.06
52307;BME280;38249;48.920;12.882;2022-12-29T06:12:50;96836.72;;;5.44;54.80
52307;BME280;38249;48.920;12.882;2022-12-29T06:15:17;96826.22;;;5.53;54.79
52307;BME280;38249;48.920;12.882;2022-12-29T06:17:44;96821.72;;;5.48;55.06
52307;BME280;38249;48.920;12.882;2022-12-29T06:20:11;96846.78;;;5.52;54.33
52307;BME280;38249;48.920;12.882;2022-12-29T06:22:39;96829.25;;;5.65;54.74
52307;BME280;38249;48.920;12.882;2022-12-29T06:25:06;96834.88;;;5.63;54.46
52307;BME280;38249;48.920;12.882;2022-12-29T06:27:32;96818.84;;;5.63;54.63
52307;BME280;38249;48.920;12.882;2022-12-29T06:29:59;96834.59;;;5.65;54.54
52307;BME280;38249;48.920;12.882;2022-12-29T06:32:25;96830.56;;;5.68;54.58
52307;BME280;38249;48.920;12.882;2022-12-29T06:34:52;96841.81;;;5.65;54.47
52307;BME280;38249;48.920;12.882;2022-12-29T06:37:18;96827.91;;;5.68;54.31
52307;BME280;38249;48.920;12.882;2022-12-29T06:39:46;96829.56;;;5.83;54.23
52307;BME280;38249;48.920;12.882;2022-12-29T06:42:12;96837.72;;;5.72;54.17
52307;BME280;38249;48.920;12.882;2022-12-29T06:44:39;96813.59;;;5.77;54.27
52307;BME280;38249;48.920;12.882;2022-12-29T06:47:06;96837.72;;;5.72;54.03
52307;BME280;38249;48.920;12.882;2022-12-29T06:49:32;96831.53;;;5.77;54.32
52307;BME280;38249;48.920;12.882;2022-12-29T06:51:59;96831.22;;;5.78;54.43
52307;BME280;38249;48.920;12.882;2022-12-29T06:54:26;96836.28;;;5.80;54.32
52307;BME280;38249;48.920;12.882;2022-12-29T06:56:53;96833.75;;;5.89;54.35
52307;BME280;38249;48.920;12.882;2022-12-29T06:59:20;96855.00;;;5.80;54.20
52307;BME280;38249;48.920;12.882;2022-12-29T07:01:46;96824.28;;;5.77;54.04
52307;BME280;38249;48.920;12.882;2022-12-29T07:04:13;96836.56;;;5.78;54.01
52307;BME280;38249;48.920;12.882;2022-12-29T07:06:39;96833.81;;;5.84;54.00
52307;BME280;38249;48.920;12.882;2022-12-29T07:09:06;96830.28;;;5.88;54.21
52307;BME280;38249;48.920;12.882;2022-12-29T07:11:33;96831.72;;;5.80;54.07
52307;BME280;38249;48.920;12.882;2022-12-29T07:14:01;96841.19;;;5.92;53.97
52307;BME280;38249;48.920;12.882;2022-12-29T07:16:28;96839.47;;;5.82;54.13
52307;BME280;38249;48.920;12.882;2022-12-29T07:18:55;96842.56;;;5.89;53.91
52307;BME280;38249;48.920;12.882;2022-12-29T07:21:22;96852.69;;;5.92;53.79
52307;BME280;38249;48.920;12.882;2022-12-29T07:23:49;96848.94;;;5.93;53.92
52307;BME280;38249;48.920;12.882;2022-12-29T07:26:15;96843.72;;;6.02;53.96
52307;BME280;38249;48.920;12.882;2022-12-29T07:28:43;96858.09;;;6.06;53.98
52307;BME280;38249;48.920;12.882;2022-12-29T07:31:15;96858.16;;;6.20;53.75
52307;BME280;38249;48.920;12.882;2022-12-29T07:33:42;96855.66;;;6.10;53.70
52307;BME280;38249;48.920;12.882;2022-12-29T07:36:09;96870.59;;;6.11;53.90
52307;BME280;38249;48.920;12.882;2022-12-29T07:38:35;96864.66;;;6.14;53.67
52307;BME280;38249;48.920;12.882;2022-12-29T07:41:02;96861.13;;;6.18;53.12
52307;BME280;38249;48.920;12.882;2022-12-29T07:43:28;96863.22;;;6.22;53.42
52307;BME280;38249;48.920;12.882;2022-12-29T07:45:55;96852.34;;;6.32;53.27
52307;BME280;38249;48.920;12.882;2022-12-29T07:48:23;96869.53;;;6.45;53.49
52307;BME280;38249;48.920;12.882;2022-12-29T07:50:49;96868.75;;;6.44;53.33
52307;BME280;38249;48.920;12.882;2022-12-29T07:53:16;96844.97;;;6.43;52.99
52307;BME280;38249;48.920;12.882;2022-12-29T07:55:43;96868.66;;;6.49;52.91
52307;BME280;38249;48.920;12.882;2022-12-29T07:58:09;96875.66;;;6.64;52.69
52307;BME280;38249;48.920;12.882;2022-12-29T08:00:36;96883.25;;;6.76;52.85
52307;BME280;38249;48.920;12.882;2022-12-29T08:03:04;96868.47;;;6.79;52.62
52307;BME280;38249;48.920;12.882;2022-12-29T08:05:32;96865.72;;;6.98;52.74
52307;BME280;38249;48.920;12.882;2022-12-29T08:07:59;96868.28;;;6.89;52.78
52307;BME280;38249;48.920;12.882;2022-12-29T08:10:26;96870.88;;;6.94;52.58
52307;BME280;38249;48.920;12.882;2022-12-29T08:12:53;96852.72;;;7.05;52.31
52307;BME280;38249;48.920;12.882;2022-12-29T08:15:19;96868.78;;;7.05;52.57
52307;BME280;38249;48.920;12.882;2022-12-29T08:17:46;96866.03;;;7.10;52.18
52307;BME280;38249;48.920;12.882;2022-12-29T08:20:12;96860.50;;;7.20;52.19
52307;BME280;38249;48.920;12.882;2022-12-29T08:22:40;96871.34;;;7.43;52.44
52307;BME280;38249;48.920;12.882;2022-12-29T08:25:07;96877.19;;;7.45;52.22
52307;BME280;38249;48.920;12.882;2022-12-29T08:27:34;96899.41;;;7.45;52.00
52307;BME280;38249;48.920;12.882;2022-12-29T08:30:00;96890.19;;;7.52;52.08
52307;BME280;38249;48.920;12.882;2022-12-29T08:32:27;96886.22;;;7.63;51.74
52307;BME280;38249;48.920;12.882;2022-12-29T08:34:54;96873.69;;;7.58;51.62
52307;BME280;38249;48.920;12.882;2022-12-29T08:37:21;96863.66;;;7.64;51.32
52307;BME280;38249;48.920;12.882;2022-12-29T08:39:49;96870.97;;;7.86;51.61
52307;BME280;38249;48.920;12.882;2022-12-29T08:42:15;96865.13;;;7.84;51.38
52307;BME280;38249;48.920;12.882;2022-12-29T08:44:42;96862.94;;;7.86;51.65
52307;BME280;38249;48.920;12.882;2022-12-29T08:47:09;96867.59;;;7.94;51.59
52307;BME280;38249;48.920;12.882;2022-12-29T08:49:36;96876.41;;;7.95;51.60
52307;BME280;38249;48.920;12.882;2022-12-29T08:52:03;96875.78;;;8.12;51.71
52307;BME280;38249;48.920;12.882;2022-12-29T08:54:30;96873.22;;;8.07;51.16
52307;BME280;38249;48.920;12.882;2022-12-29T08:56:58;96878.41;;;8.26;51.00
52307;BME280;38249;48.920;12.882;2022-12-29T08:59:24;96876.03;;;8.24;50.90
52307;BME280;38249;48.920;12.882;2022-12-29T09:01:51;96890.22;;;8.38;51.06
52307;BME280;38249;48.920;12.882;2022-12-29T09:04:17;96893.16;;;8.51;50.60
52307;BME280;38249;48.920;12.882;2022-12-29T09:06:44;96904.94;;;8.64;50.71
52307;BME280;38249;48.920;12.882;2022-12-29T09:09:11;96905.66;;;8.55;50.80
52307;BME280;38249;48.920;12.882;2022-12-29T09:11:38;96889.34;;;8.52;50.45
52307;BME280;38249;48.920;12.882;2022-12-29T09:14:06;96906.38;;;8.70;50.58
52307;BME280;38249;48.920;12.882;2022-12-29T09:16:33;96904.84;;;8.78;50.23
52307;BME280;38249;48.920;12.882;2022-12-29T09:19:00;96898.44;;;8.87;49.67
52307;BME280;38249;48.920;12.882;2022-12-29T09:21:27;96911.88;;;9.10;49.17
52307;BME280;38249;48.920;12.882;2022-12-29T09:23:53;96904.41;;;9.38;48.81
52307;BME280;38249;48.920;12.882;2022-12-29T09:26:20;96900.41;;;9.76;48.16
52307;BME280;38249;48.920;12.882;2022-12-29T09:28:46;96905.41;;;10.17;47.45
52307;BME280;38249;48.920;12.882;2022-12-29T09:31:14;96893.72;;;10.48;46.51
52307;BME280;38249;48.920;12.882;2022-12-29T09:33:41;96903.72;;;10.48;46.28
52307;BME280;38249;48.920;12.882;2022-12-29T09:36:08;96894.53;;;10.57;45.41
52307;BME280;38249;48.920;12.882;2022-12-29T09:38:35;96902.09;;;10.55;44.78
52307;BME280;38249;48.920;12.882;2022-12-29T09:41:06;96902.09;;;10.73;43.58
52307;BME280;38249;48.920;12.882;2022-12-29T09:43:49;96880.53;;;10.82;41.06
52307;BME280;38249;48.920;12.882;2022-12-29T09:46:24;96882.75;;;10.80;41.74
52307;BME280;38249;48.920;12.882;2022-12-29T09:48:57;96890.03;;;10.88;42.18
52307;BME280;38249;48.920;12.882;2022-12-29T09:51:27;96876.47;;;11.14;42.36
52307;BME280;38249;48.920;12.882;2022-12-29T09:53:57;96881.88;;;11.91;40.48
52307;BME280;38249;48.920;12.882;2022-12-29T09:56:25;96882.47;;;12.39;39.93
52307;BME280;38249;48.920;12.882;2022-12-29T09:58:56;96888.19;;;12.92;38.74
52307;BME280;38249;48.920;12.882;2022-12-29T10:01:30;96879.28;;;13.49;36.62
52307;BME280;38249;48.920;12.882;2022-12-29T10:03:59;96876.00;;;13.81;35.57
52307;BME280;38249;48.920;12.882;2022-12-29T10:06:33;96881.41;;;14.46;34.45
52307;BME280;38249;48.920;12.882;2022-12-29T10:09:11;96876.69;;;15.00;34.13
52307;BME280;38249;48.920;12.882;2022-12-29T10:11:54;96869.00;;;15.49;32.75
52307;BME280;38249;48.920;12.882;2022-12-29T10:14:39;96860.41;;;16.15;32.97
52307;BME280;38249;48.920;12.882;2022-12-29T10:17:20;96874.66;;;16.67;30.27
52307;BME280;38249;48.920;12.882;2022-12-29T10:20:03;96874.47;;;16.75;30.06
52307;BME280;38249;48.920;12.882;2022-12-29T10:22:46;96865.38;;;16.48;29.43
52307;BME280;38249;48.920;12.882;2022-12-29T10:25:19;96861.50;;;16.69;30.44
52307;BME280;38249;48.920;12.882;2022-12-29T10:27:48;96862.28;;;17.12;29.46
52307;BME280;38249;48.920;12.882;2022-12-29T10:30:16;96865.75;;;17.09;28.74
52307;BME280;38249;48.920;12.882;2022-12-29T10:32:47;96859.25;;;16.94;28.37
52307;BME280;38249;48.920;12.882;2022-12-29T10:35:18;96850.63;;;16.69;28.80
52307;BME280;38249;48.920;12.882;2022-12-29T10:37:49;96849.81;;;16.10;28.74
52307;BME280;38249;48.920;12.882;2022-12-29T10:40:24;96851.84;;;15.61;29.00
52307;BME280;38249;48.920;12.882;2022-12-29T10:42:53;96847.47;;;15.09;30.22
52307;BME280;38249;48.920;12.882;2022-12-29T10:45:22;96847.72;;;14.88;30.20
52307;BME280;38249;48.920;12.882;2022-12-29T10:47:55;96839.63;;;14.75;30.58
52307;BME280;38249;48.920;12.882;2022-12-29T10:50:24;96839.09;;;14.41;31.21
52307;BME280;38249;48.920;12.882;2022-12-29T10:52:52;96836.50;;;14.04;32.53
52307;BME280;38249;48.920;12.882;2022-12-29T10:55:22;96830.06;;;14.09;32.11
52307;BME280;38249;48.920;12.882;2022-12-29T10:57:53;96823.56;;;13.73;32.41
52307;BME280;38249;48.920;12.882;2022-12-29T11:00:23;96815.56;;;13.64;32.32
52307;BME280;38249;48.920;12.882;2022-12-29T11:05:55;96814.41;;;13.78;32.85
52307;BME280;38249;48.920;12.882;2022-12-29T11:08:26;96807.00;;;13.62;32.84
52307;BME280;38249;48.920;12.882;2022-12-29T11:10:58;96804.31;;;13.50;33.34
52307;BME280;38249;48.920;12.882;2022-12-29T11:13:28;96798.91;;;13.38;33.76
52307;BME280;38249;48.920;12.882;2022-12-29T11:15:55;96791.13;;;12.99;33.75
52307;BME280;38249;48.920;12.882;2022-12-29T11:18:24;96788.00;;;12.97;33.06
52307;BME280;38249;48.920;12.882;2022-12-29T11:20:53;96793.03;;;12.86;33.28
52307;BME280;38249;48.920;12.882;2022-12-29T11:23:29;96800.34;;;12.98;32.95
52307;BME280;38249;48.920;12.882;2022-12-29T11:26:06;96797.34;;;13.12;33.24
52307;BME280;38249;48.920;12.882;2022-12-29T11:28:34;96798.31;;;12.95;34.39
52307;BME280;38249;48.920;12.882;2022-12-29T11:31:01;96796.28;;;12.92;34.18
52307;BME280;38249;48.920;12.882;2022-12-29T11:33:30;96792.94;;;13.07;33.43
52307;BME280;38249;48.920;12.882;2022-12-29T11:35:58;96795.97;;;13.18;33.99
52307;BME280;38249;48.920;12.882;2022-12-29T11:38:35;96788.78;;;13.22;32.99
52307;BME280;38249;48.920;12.882;2022-12-29T11:41:03;96798.25;;;13.04;33.02
52307;BME280;38249;48.920;12.882;2022-12-29T11:43:33;96798.00;;;12.97;33.68
52307;BME280;38249;48.920;12.882;2022-12-29T11:46:01;96796.41;;;12.83;33.67
52307;BME280;38249;48.920;12.882;2022-12-29T11:48:33;96801.72;;;13.04;33.60
52307;BME280;38249;48.920;12.882;2022-12-29T11:51:04;96794.63;;;13.00;32.98
52307;BME280;38249;48.920;12.882;2022-12-29T11:53:38;96788.66;;;13.19;32.87
52307;BME280;38249;48.920;12.882;2022-12-29T11:56:08;96784.81;;;13.20;33.29
52307;BME280;38249;48.920;12.882;2022-12-29T11:58:38;96777.38;;;13.04;33.45
52307;BME280;38249;48.920;12.882;2022-12-29T12:01:06;96777.59;;;12.87;32.78
52307;BME280;38249;48.920;12.882;2022-12-29T12:03:42;96782.38;;;12.69;33.83
52307;BME280;38249;48.920;12.882;2022-12-29T12:06:15;96779.13;;;12.63;34.26
52307;BME280;38249;48.920;12.882;2022-12-29T12:08:46;96771.00;;;12.63;33.96
52307;BME280;38249;48.920;12.882;2022-12-29T12:11:16;96768.75;;;12.65;34.32
52307;BME280;38249;48.920;12.882;2022-12-29T12:13:54;96775.13;;;12.82;34.00
52307;BME280;38249;48.920;12.882;2022-12-29T12:16:27;96764.97;;;12.79;34.23
52307;BME280;38249;48.920;12.882;2022-12-29T12:19:02;96766.91;;;12.78;34.71
52307;BME280;38249;48.920;12.882;2022-12-29T12:21:32;96763.13;;;12.70;34.88
52307;BME280;38249;48.920;12.882;2022-12-29T12:24:37;96771.63;;;12.93;35.24
52307;BME280;38249;48.920;12.882;2022-12-29T12:27:12;96767.34;;;13.05;35.88
52307;BME280;38249;48.920;12.882;2022-12-29T12:29:43;96767.69;;;13.40;35.90
52307;BME280;38249;48.920;12.882;2022-12-29T12:32:16;96764.38;;;14.12;35.29
52307;BME280;38249;48.920;12.882;2022-12-29T12:34:45;96756.00;;;14.46;34.41
52307;BME280;38249;48.920;12.882;2022-12-29T12:37:27;96759.22;;;14.51;33.96
52307;BME280;38249;48.920;12.882;2022-12-29T12:40:21;96755.09;;;14.41;33.63
52307;BME280;38249;48.920;12.882;2022-12-29T12:42:59;96757.97;;;14.33;34.31
52307;BME280;38249;48.920;12.882;2022-12-29T12:45:42;96758.66;;;14.30;34.48
52307;BME280;38249;48.920;12.882;2022-12-29T12:48:28;96760.34;;;14.34;34.91
52307;BME280;38249;48.920;12.882;2022-12-29T12:51:07;96757.28;;;14.36;34.72
52307;BME280;38249;48.920;12.882;2022-12-29T12:53:44;96746.44;;;14.36;35.29
52307;BME280;38249;48.920;12.882;2022-12-29T12:56:27;96746.09;;;14.37;34.46
52307;BME280;38249;48.920;12.882;2022-12-29T12:59:04;96734.06;;;14.51;34.19
52307;BME280;38249;48.920;12.882;2022-12-29T13:01:38;96743.97;;;14.75;34.43
52307;BME280;38249;48.920;12.882;2022-12-29T13:04:25;96737.84;;;14.78;34.30
52307;BME280;38249;48.920;12.882;2022-12-29T13:07:04;96716.50;;;15.08;34.13
52307;BME280;38249;48.920;12.882;2022-12-29T13:09:44;96734.44;;;15.48;33.48
52307;BME280;38249;48.920;12.882;2022-12-29T13:12:23;96747.06;;;15.76;33.02
52307;BME280;38249;48.920;12.882;2022-12-29T13:15:04;96747.28;;;16.07;32.44
52307;BME280;38249;48.920;12.882;2022-12-29T13:17:40;96741.38;;;16.20;31.77
52307;BME280;38249;48.920;12.882;2022-12-29T13:20:18;96743.16;;;16.55;30.62
52307;BME280;38249;48.920;12.882;2022-12-29T13:22:51;96734.47;;;16.69;30.44